Terminal Aerodrome Forecast
Issued by NWS

Home | Current Version | Previous Version | Text Only | Print | Product List | Glossary On
Versions: 1 2 3 4 5 6 7 8 9 10 11 12 13
000
FTAK31 PANC 221733
TAFAVD
TAF
PAVD 221733Z 2218/2318 VRB05KT P6SM SCT030 BKN100
      TEMPO 2218/2221 BKN030
     FM222100 26008KT P6SM VCSH SCT045 BKN060
     FM230600 VRB04KT P6SM VCSH SCT035 BKN050
      AMD LTD TO CLD VIS AND WIND=

USA.gov is the U.S. government's official web portal to all federal, state and local government web resources and services.